createdAt,value
2017-10-13T00:00:18.363Z,67.63
2017-10-13T00:02:46.123Z,67.88
2017-10-13T00:05:13.638Z,67.77
2017-10-13T00:07:41.163Z,68.71
2017-10-13T00:10:08.903Z,69.00
2017-10-13T00:12:36.428Z,69.93
2017-10-13T00:15:03.961Z,69.15
2017-10-13T00:17:31.788Z,69.03
2017-10-13T00:19:59.313Z,69.25
2017-10-13T00:22:27.841Z,70.93
2017-10-13T00:24:55.790Z,71.02
2017-10-13T00:27:23.323Z,69.96
2017-10-13T00:29:50.843Z,69.77
2017-10-13T00:32:18.571Z,69.53
2017-10-13T00:34:46.087Z,69.72
2017-10-13T00:37:13.615Z,69.55
2017-10-13T00:39:41.375Z,70.47
2017-10-13T00:42:08.895Z,69.26
2017-10-13T00:44:36.411Z,70.30
2017-10-13T00:47:04.231Z,70.61
2017-10-13T00:49:31.751Z,71.27
2017-10-13T00:51:59.279Z,70.85
2017-10-13T00:54:26.863Z,71.99
2017-10-13T00:56:54.388Z,71.64
2017-10-13T00:59:22.027Z,71.02
2017-10-13T01:01:49.792Z,71.85
2017-10-13T01:04:17.324Z,71.27
2017-10-13T01:06:44.860Z,69.89
2017-10-13T01:09:12.775Z,70.05
2017-10-13T01:11:40.299Z,69.64
2017-10-13T01:14:07.833Z,69.61
2017-10-13T01:16:35.422Z,69.03
2017-10-13T01:19:02.950Z,68.92
2017-10-13T01:21:30.476Z,68.62
2017-10-13T01:23:58.200Z,69.26
2017-10-13T01:26:26.071Z,69.37
2017-10-13T01:28:53.619Z,70.39
2017-10-13T01:31:21.528Z,69.70
2017-10-13T01:33:49.059Z,69.79
2017-10-13T01:36:16.583Z,69.52
2017-10-13T01:38:44.407Z,69.24
2017-10-13T01:41:11.924Z,68.09
2017-10-13T01:43:39.666Z,68.67
2017-10-13T01:46:07.394Z,69.92
2017-10-13T01:48:34.914Z,70.37
2017-10-13T01:51:02.440Z,71.24
2017-10-13T01:53:30.011Z,71.86
2017-10-13T01:55:57.534Z,72.12
2017-10-13T01:58:25.059Z,71.49
2017-10-13T02:00:52.746Z,70.52
2017-10-13T02:03:20.273Z,70.63
2017-10-13T02:05:47.806Z,71.42
2017-10-13T02:08:15.526Z,70.78
2017-10-13T02:10:43.065Z,69.52
2017-10-13T02:13:10.584Z,71.20
2017-10-13T02:15:38.751Z,71.40
2017-10-13T02:18:06.261Z,70.97
2017-10-13T02:20:33.799Z,71.73
2017-10-13T02:23:01.498Z,70.95
2017-10-13T02:25:29.016Z,72.40
2017-10-13T02:27:56.540Z,72.00
2017-10-13T02:30:24.140Z,71.09
2017-10-13T02:32:51.669Z,69.95
2017-10-13T02:35:19.196Z,70.06
2017-10-13T02:37:46.965Z,71.00
2017-10-13T02:40:14.491Z,70.97
2017-10-13T02:42:42.012Z,70.47
2017-10-13T02:45:09.736Z,69.83
2017-10-13T02:47:37.267Z,70.57
2017-10-13T02:50:04.792Z,69.22
2017-10-13T02:52:32.512Z,69.94
2017-10-13T02:55:00.080Z,70.47
2017-10-13T02:57:27.603Z,71.54
2017-10-13T02:59:55.224Z,71.88
2017-10-13T03:02:22.751Z,71.97
2017-10-13T03:04:50.279Z,71.85
2017-10-13T03:07:18.071Z,71.78
2017-10-13T03:09:45.591Z,72.23
2017-10-13T03:12:13.108Z,72.48
2017-10-13T03:14:41.055Z,72.28
2017-10-13T03:17:08.581Z,72.06
2017-10-13T03:19:36.103Z,72.58
2017-10-13T03:22:03.946Z,72.07
2017-10-13T03:24:31.512Z,72.05
2017-10-13T03:26:59.031Z,72.15
2017-10-13T03:29:26.718Z,71.53
2017-10-13T03:31:55.244Z,72.28
2017-10-13T03:34:22.772Z,71.96
2017-10-13T03:36:50.331Z,71.40
2017-10-13T03:39:17.856Z,70.98
2017-10-13T03:41:45.384Z,71.37
2017-10-13T03:44:13.097Z,70.76
2017-10-13T03:46:40.724Z,70.54
2017-10-13T03:49:08.243Z,69.62
2017-10-13T03:51:35.835Z,70.69
2017-10-13T03:54:03.363Z,69.98
2017-10-13T03:56:30.888Z,70.07
2017-10-13T03:58:58.456Z,69.64
2017-10-13T04:01:25.999Z,68.48
2017-10-13T04:03:53.527Z,68.81
2017-10-13T04:06:21.330Z,69.80
2017-10-13T04:08:48.847Z,69.81
2017-10-13T04:11:16.368Z,69.14
2017-10-13T04:13:44.006Z,68.69
2017-10-13T04:16:11.547Z,69.22
2017-10-13T04:18:39.095Z,69.59
2017-10-13T04:21:06.891Z,68.54
2017-10-13T04:23:34.422Z,68.23
2017-10-13T04:26:01.977Z,69.71
2017-10-13T04:28:29.631Z,70.97
2017-10-13T04:30:57.178Z,70.96
2017-10-13T04:33:24.695Z,70.88
2017-10-13T04:35:52.451Z,70.79
2017-10-13T04:38:20.007Z,71.27
2017-10-13T04:40:47.531Z,71.22
2017-10-13T04:43:15.418Z,71.54
2017-10-13T04:45:42.943Z,72.22
2017-10-13T04:48:10.471Z,71.26
2017-10-13T04:50:38.957Z,70.82
2017-10-13T04:53:06.500Z,70.77
2017-10-13T04:55:34.023Z,70.67
2017-10-13T04:58:01.902Z,70.89
2017-10-13T05:00:29.451Z,71.21
2017-10-13T05:02:56.974Z,70.65
2017-10-13T05:05:24.885Z,71.09
2017-10-13T05:07:52.407Z,72.02
2017-10-13T05:10:19.931Z,72.48
2017-10-13T05:12:47.688Z,72.02
2017-10-13T05:15:15.227Z,72.66
2017-10-13T05:17:42.754Z,72.49
2017-10-13T05:20:10.588Z,73.06
2017-10-13T05:22:38.182Z,72.61
2017-10-13T05:25:05.704Z,72.68
2017-10-13T05:27:33.453Z,72.85
2017-10-13T05:30:00.981Z,73.09
2017-10-13T05:32:28.502Z,73.50
2017-10-13T05:34:56.307Z,73.44
2017-10-13T05:37:23.827Z,72.72
2017-10-13T05:39:51.359Z,73.13
2017-10-13T05:42:19.106Z,72.96
2017-10-13T05:44:46.652Z,72.78
2017-10-13T05:47:14.171Z,72.69
2017-10-13T05:49:41.915Z,72.11
2017-10-13T05:52:09.465Z,72.44
2017-10-13T05:54:37.078Z,72.65
2017-10-13T05:57:04.780Z,72.74
2017-10-13T05:59:32.323Z,71.80
2017-10-13T06:01:59.849Z,72.40
2017-10-13T06:04:27.488Z,72.22
2017-10-13T06:06:55.113Z,72.82
2017-10-13T06:09:22.631Z,71.88
2017-10-13T06:11:50.451Z,72.29
2017-10-13T06:14:18.150Z,72.38
2017-10-13T06:16:45.831Z,72.77
2017-10-13T06:19:13.723Z,72.37
2017-10-13T06:21:41.523Z,71.58
2017-10-13T06:24:09.061Z,70.87
2017-10-13T06:26:36.635Z,70.69
2017-10-13T06:29:04.235Z,70.13
2017-10-13T06:31:31.798Z,69.53
2017-10-13T06:34:00.632Z,70.21
2017-10-13T06:36:29.116Z,70.22
2017-10-13T06:38:56.737Z,70.66
2017-10-13T06:41:24.438Z,70.71
2017-10-13T06:43:51.981Z,71.08
2017-10-13T06:46:19.519Z,69.71
2017-10-13T06:48:47.351Z,69.52
2017-10-13T06:51:14.900Z,69.04
2017-10-13T06:53:42.424Z,69.17
2017-10-13T06:56:10.470Z,69.16
2017-10-13T06:58:38.056Z,67.89
2017-10-13T07:01:06.549Z,67.53
2017-10-13T07:03:34.296Z,66.63
2017-10-13T07:06:01.832Z,66.96
2017-10-13T07:08:29.375Z,66.22
2017-10-13T07:10:56.983Z,67.55
2017-10-13T07:13:24.603Z,66.71
2017-10-13T07:15:52.172Z,67.13
2017-10-13T07:18:19.963Z,67.35
2017-10-13T07:20:47.547Z,67.75
2017-10-13T07:23:15.160Z,66.50
2017-10-13T07:25:42.960Z,66.90
2017-10-13T07:28:10.564Z,66.78
2017-10-13T07:30:38.119Z,66.12
2017-10-13T07:33:05.699Z,66.65
2017-10-13T07:35:33.227Z,65.94
2017-10-13T07:38:00.783Z,66.14
2017-10-13T07:40:28.703Z,65.16
2017-10-13T07:42:56.291Z,64.49
2017-10-13T07:45:23.839Z,65.42
2017-10-13T07:47:51.557Z,64.24
2017-10-13T07:50:19.165Z,63.56
2017-10-13T07:52:46.684Z,62.51
2017-10-13T07:55:14.584Z,62.96
2017-10-13T07:57:42.107Z,61.75
2017-10-13T08:00:09.632Z,62.18
2017-10-13T08:02:37.350Z,60.96
2017-10-13T08:05:05.337Z,61.36
2017-10-13T08:07:32.857Z,61.15
2017-10-13T08:10:00.408Z,61.28
2017-10-13T08:12:27.922Z,60.32
2017-10-13T08:14:55.443Z,60.57
2017-10-13T08:17:23.132Z,59.56
2017-10-13T08:19:50.648Z,59.78
2017-10-13T08:22:18.181Z,59.68
2017-10-13T08:24:45.890Z,59.45
2017-10-13T08:27:13.408Z,59.20
2017-10-13T08:29:40.932Z,58.85
2017-10-13T08:32:09.457Z,59.63
2017-10-13T08:34:37.003Z,59.12
2017-10-13T08:37:04.520Z,57.39
2017-10-13T08:39:32.084Z,57.33
2017-10-13T08:41:59.608Z,57.05
2017-10-13T08:44:27.127Z,56.64
2017-10-13T08:46:54.714Z,56.51
2017-10-13T08:49:22.232Z,57.11
2017-10-13T08:51:49.750Z,56.70
2017-10-13T08:54:17.306Z,56.63
2017-10-13T08:56:45.297Z,56.14
2017-10-13T08:59:12.828Z,55.23
2017-10-13T09:01:40.385Z,55.46
2017-10-13T09:04:07.900Z,54.28
2017-10-13T09:06:35.424Z,52.97
2017-10-13T09:09:03.117Z,51.84
2017-10-13T09:11:30.645Z,45.88
2017-10-13T09:13:58.179Z,39.63
2017-10-13T09:16:25.965Z,34.91
2017-10-13T09:18:53.495Z,29.17
2017-10-13T09:21:21.020Z,26.38
2017-10-13T09:23:48.667Z,26.16
2017-10-13T09:26:16.184Z,24.86
2017-10-13T09:28:43.698Z,24.64
2017-10-13T09:31:11.426Z,22.63
2017-10-13T09:33:38.939Z,22.28
2017-10-13T09:36:06.451Z,21.73
2017-10-13T09:38:34.199Z,21.04
2017-10-13T09:41:01.717Z,21.88
2017-10-13T09:43:29.235Z,20.89
2017-10-13T09:45:56.808Z,19.06
2017-10-13T09:48:24.327Z,21.29
2017-10-13T09:50:51.848Z,23.65
2017-10-13T09:53:19.659Z,22.32
2017-10-13T09:55:47.180Z,23.45
2017-10-13T09:58:14.699Z,21.85
2017-10-13T10:00:42.288Z,20.39
2017-10-13T10:03:09.801Z,21.61
2017-10-13T10:05:37.312Z,21.78
2017-10-13T10:08:05.219Z,20.31
2017-10-13T10:10:32.741Z,18.61
2017-10-13T10:13:00.255Z,19.82
2017-10-13T10:15:27.998Z,17.48
2017-10-13T10:17:55.511Z,16.60
2017-10-13T10:20:23.030Z,14.27
2017-10-13T10:22:50.781Z,14.11
2017-10-13T10:25:18.308Z,14.20
2017-10-13T10:27:45.823Z,14.24
2017-10-13T10:30:13.391Z,12.32
2017-10-13T10:32:40.911Z,10.92
2017-10-13T10:35:08.435Z,10.83
2017-10-13T10:37:36.339Z,11.68
2017-10-13T10:40:03.851Z,12.99
2017-10-13T10:42:31.372Z,12.47
2017-10-13T10:44:59.118Z,11.71
2017-10-13T10:47:26.631Z,10.14
2017-10-13T10:49:54.152Z,9.90
2017-10-13T10:52:21.895Z,10.71
2017-10-13T10:54:49.438Z,13.47
2017-10-13T10:57:16.956Z,14.04
2017-10-13T10:59:44.520Z,15.28
2017-10-13T11:02:12.035Z,18.61
2017-10-13T11:04:39.557Z,20.65
2017-10-13T11:07:07.455Z,23.54
2017-10-13T11:09:34.971Z,24.73
2017-10-13T11:12:02.493Z,25.14
2017-10-13T11:14:30.236Z,21.73
2017-10-13T11:16:57.760Z,23.02
2017-10-13T11:19:25.283Z,23.22
2017-10-13T11:21:52.850Z,22.81
2017-10-13T11:24:20.370Z,24.38
2017-10-13T11:26:47.879Z,25.51
2017-10-13T11:29:15.439Z,26.96
2017-10-13T11:31:42.964Z,28.14
2017-10-13T11:34:10.484Z,26.77
2017-10-13T11:36:38.271Z,26.43
2017-10-13T11:39:05.787Z,20.52
2017-10-13T11:41:33.308Z,15.34
2017-10-13T11:44:01.053Z,14.83
2017-10-13T11:46:28.570Z,14.06
2017-10-13T11:48:56.083Z,12.55
2017-10-13T11:51:23.855Z,12.20
2017-10-13T11:53:51.371Z,12.84
2017-10-13T11:56:18.899Z,12.36
2017-10-13T11:58:46.628Z,13.40
2017-10-13T12:01:14.155Z,11.10
2017-10-13T12:03:41.823Z,10.87
2017-10-13T12:06:09.700Z,10.15
2017-10-13T12:08:37.220Z,11.29
2017-10-13T12:11:04.745Z,12.10
2017-10-13T12:13:32.483Z,13.66
2017-10-13T12:16:00.000Z,16.00
2017-10-13T12:18:27.531Z,18.53
2017-10-13T12:20:55.490Z,20.29
2017-10-13T12:23:23.140Z,21.81
2017-10-13T12:25:50.663Z,22.58
2017-10-13T12:28:18.339Z,23.90
2017-10-13T12:30:46.123Z,24.88
2017-10-13T12:33:13.682Z,24.80
2017-10-13T12:35:41.432Z,26.30
2017-10-13T12:38:08.946Z,26.54
2017-10-13T12:40:36.565Z,28.28
2017-10-13T12:43:04.307Z,28.35
2017-10-13T12:45:31.837Z,28.48
2017-10-13T12:47:59.363Z,30.19
2017-10-13T12:50:27.091Z,30.69
2017-10-13T12:52:54.639Z,30.97
2017-10-13T12:55:22.214Z,31.23
2017-10-13T12:57:49.868Z,31.97
2017-10-13T13:00:17.392Z,32.51
2017-10-13T13:02:44.922Z,32.70
2017-10-13T13:05:12.648Z,33.72
2017-10-13T13:07:40.163Z,34.01
2017-10-13T13:10:08.562Z,34.11
2017-10-13T13:12:36.478Z,34.03
2017-10-13T13:15:04.008Z,33.34
2017-10-13T13:17:31.585Z,34.79
2017-10-13T13:19:59.430Z,35.09
2017-10-13T13:22:26.954Z,34.80
2017-10-13T13:24:54.475Z,35.34
2017-10-13T13:27:22.020Z,36.24
2017-10-13T13:29:49.795Z,35.56
2017-10-13T13:32:17.558Z,35.95
2017-10-13T13:34:45.325Z,37.11
2017-10-13T13:37:12.840Z,36.94
2017-10-13T13:39:40.355Z,37.77
2017-10-13T13:42:07.932Z,38.68
2017-10-13T13:44:35.466Z,38.37
2017-10-13T13:47:03.037Z,37.89
2017-10-13T13:49:30.983Z,37.92
2017-10-13T13:51:58.827Z,38.84
2017-10-13T13:54:27.025Z,37.98
2017-10-13T13:56:54.778Z,38.15
2017-10-13T13:59:22.344Z,38.10
2017-10-13T14:01:49.864Z,39.35
2017-10-13T14:04:17.675Z,37.11
2017-10-13T14:06:45.333Z,37.60
2017-10-13T14:09:12.879Z,37.86
2017-10-13T14:11:40.472Z,37.98
2017-10-13T14:14:08.083Z,37.64
2017-10-13T14:16:35.778Z,38.10
2017-10-13T14:19:03.527Z,38.63
2017-10-13T14:21:31.128Z,37.94
2017-10-13T14:23:58.728Z,39.06
2017-10-13T14:26:26.503Z,38.33
2017-10-13T14:28:54.043Z,38.63
2017-10-13T14:31:21.565Z,38.06
2017-10-13T14:33:49.491Z,38.28
2017-10-13T14:36:17.128Z,38.16
2017-10-13T14:38:44.648Z,39.23
2017-10-13T14:41:12.388Z,38.13
2017-10-13T14:43:40.118Z,37.68
2017-10-13T14:46:07.916Z,37.86
2017-10-13T14:48:35.887Z,38.64
2017-10-13T14:51:03.448Z,37.84
2017-10-13T14:53:31.047Z,38.47
2017-10-13T14:55:58.972Z,38.34
2017-10-13T14:58:26.483Z,38.05
2017-10-13T15:00:54.090Z,38.05
2017-10-13T15:03:21.792Z,37.59
2017-10-13T15:05:49.418Z,38.38
2017-10-13T15:08:16.946Z,37.88
2017-10-13T15:10:44.711Z,37.84
2017-10-13T15:13:12.238Z,37.61
2017-10-13T15:15:39.957Z,37.87
2017-10-13T15:18:07.708Z,37.94
2017-10-13T15:20:35.237Z,37.78
2017-10-13T15:23:02.784Z,40.06
2017-10-13T15:25:35.992Z,40.14
2017-10-13T15:28:09.130Z,39.94
2017-10-13T15:30:42.395Z,39.80
2017-10-13T15:36:24.423Z,38.49
2017-10-13T15:38:57.971Z,39.11
2017-10-13T15:44:33.435Z,39.26
2017-10-13T15:47:06.928Z,38.98
2017-10-13T15:49:41.028Z,38.94
2017-10-13T15:52:14.383Z,38.97
2017-10-13T15:54:41.918Z,39.23
2017-10-13T15:57:09.517Z,39.71
2017-10-13T15:59:37.232Z,39.72
2017-10-13T16:02:05.366Z,39.98
2017-10-13T16:04:33.015Z,40.45
2017-10-13T16:07:01.702Z,40.66
2017-10-13T16:09:29.256Z,41.39
2017-10-13T16:11:57.842Z,41.43
2017-10-13T16:14:25.591Z,42.23
2017-10-13T16:16:53.165Z,42.35
2017-10-13T16:19:20.707Z,42.54
2017-10-13T16:21:48.375Z,42.84
2017-10-13T16:24:16.047Z,43.36
2017-10-13T16:26:43.669Z,43.67
2017-10-13T16:29:11.236Z,44.13
2017-10-13T16:31:38.885Z,44.62
2017-10-13T16:34:06.578Z,44.99
2017-10-13T16:36:35.176Z,45.33
2017-10-13T16:39:02.843Z,45.82
2017-10-13T16:41:30.362Z,46.34
2017-10-13T16:43:57.921Z,46.55
2017-10-13T16:46:25.837Z,46.82
2017-10-13T16:48:53.658Z,47.21
2017-10-13T16:51:22.190Z,47.58
2017-10-13T16:53:50.135Z,47.90
2017-10-13T16:56:18.608Z,48.17
2017-10-13T16:58:46.501Z,48.21
2017-10-13T17:01:14.350Z,48.55
2017-10-13T17:03:41.908Z,48.85
2017-10-13T17:06:09.774Z,49.23
2017-10-13T17:08:37.305Z,49.51
2017-10-13T17:11:05.161Z,49.88
2017-10-13T17:13:33.022Z,49.95
2017-10-13T17:16:00.800Z,50.05
2017-10-13T17:18:28.695Z,50.08
2017-10-13T17:20:56.513Z,52.01
2017-10-13T17:23:24.137Z,52.60
2017-10-13T17:25:51.737Z,52.41
2017-10-13T17:28:20.673Z,51.64
2017-10-13T17:30:48.567Z,51.93
2017-10-13T17:33:16.143Z,52.33
2017-10-13T17:35:44.187Z,52.17
2017-10-13T17:38:11.934Z,52.91
2017-10-13T17:40:40.007Z,52.85
2017-10-13T17:43:08.165Z,53.03
2017-10-13T17:45:35.695Z,52.86
2017-10-13T17:48:03.256Z,53.51
2017-10-13T17:50:31.055Z,53.79
2017-10-13T17:52:58.597Z,53.98
2017-10-13T17:55:26.179Z,54.12
2017-10-13T17:57:53.771Z,54.35
2017-10-13T18:00:21.483Z,54.52
2017-10-13T18:02:49.062Z,54.82
2017-10-13T18:05:16.856Z,55.01
2017-10-13T18:07:44.384Z,55.06
2017-10-13T18:10:14.811Z,55.33
2017-10-13T18:12:42.575Z,55.84
2017-10-13T18:15:10.246Z,55.89
2017-10-13T18:17:37.784Z,55.77
2017-10-13T18:20:07.250Z,55.99
2017-10-13T18:22:34.968Z,56.59
2017-10-13T18:25:02.828Z,56.16
2017-10-13T18:27:30.898Z,56.79
2017-10-13T18:29:58.489Z,56.48
2017-10-13T18:32:26.394Z,56.71
2017-10-13T18:34:54.501Z,56.94
2017-10-13T18:37:22.365Z,57.30
2017-10-13T18:39:50.237Z,57.71
2017-10-13T18:42:18.205Z,58.10
2017-10-13T18:44:45.805Z,58.52
2017-10-13T18:47:13.530Z,58.19
2017-10-13T18:49:41.492Z,58.48
2017-10-13T18:52:09.247Z,58.78
2017-10-13T18:54:37.503Z,58.76
2017-10-13T18:57:05.501Z,58.96
2017-10-13T18:59:33.342Z,59.21
2017-10-13T19:02:01.336Z,58.88
2017-10-13T19:04:29.375Z,58.84
2017-10-13T19:06:56.966Z,59.75
2017-10-13T19:09:24.676Z,59.78
2017-10-13T19:11:52.815Z,59.64
2017-10-13T19:14:20.495Z,59.83
2017-10-13T19:16:48.124Z,60.22
2017-10-13T19:19:15.972Z,60.30
2017-10-13T19:21:43.553Z,60.61
2017-10-13T19:24:11.108Z,60.77
2017-10-13T19:26:38.860Z,60.19
2017-10-13T19:29:06.387Z,60.81
2017-10-13T19:31:34.093Z,61.13
2017-10-13T19:34:02.845Z,60.78
2017-10-13T19:36:30.382Z,60.72
2017-10-13T19:38:58.347Z,61.30
2017-10-13T19:41:25.991Z,62.01
2017-10-13T19:43:53.609Z,61.50
2017-10-13T19:46:21.388Z,62.28
2017-10-13T19:48:49.259Z,62.00
2017-10-13T19:51:16.799Z,61.89
2017-10-13T19:53:44.440Z,62.57
2017-10-13T19:56:12.085Z,62.45
2017-10-13T19:58:39.907Z,63.11
2017-10-13T20:01:07.674Z,63.03
2017-10-13T20:03:35.674Z,63.35
2017-10-13T20:06:03.609Z,63.44
2017-10-13T20:08:31.289Z,63.41
2017-10-13T20:10:59.443Z,63.12
2017-10-13T20:13:27.309Z,63.84
2017-10-13T20:15:54.901Z,63.99
2017-10-13T20:18:22.736Z,64.05
2017-10-13T20:20:50.386Z,64.12
2017-10-13T20:23:18.057Z,64.24
2017-10-13T20:25:45.736Z,63.41
2017-10-13T20:28:13.587Z,64.09
2017-10-13T20:30:41.441Z,64.41
2017-10-13T20:33:09.220Z,64.26
2017-10-13T20:35:36.824Z,64.50
2017-10-13T20:38:04.457Z,64.22
2017-10-13T20:40:32.336Z,64.23
2017-10-13T20:42:59.945Z,63.67
2017-10-13T20:45:27.532Z,64.27
2017-10-13T20:47:55.599Z,64.29
2017-10-13T20:50:23.257Z,64.16
2017-10-13T20:52:50.858Z,64.07
2017-10-13T20:55:18.584Z,64.56
2017-10-13T20:57:46.248Z,64.94
2017-10-13T21:00:13.903Z,64.91
2017-10-13T21:02:41.857Z,64.74
2017-10-13T21:05:09.738Z,64.51
2017-10-13T21:07:37.318Z,64.83
2017-10-13T21:10:05.491Z,65.02
2017-10-13T21:12:33.180Z,65.12
2017-10-13T21:15:00.870Z,64.56
2017-10-13T21:17:28.600Z,65.56
2017-10-13T21:19:56.177Z,65.81
2017-10-13T21:22:23.711Z,65.70
2017-10-13T21:24:51.714Z,65.52
2017-10-13T21:27:19.307Z,65.38
2017-10-13T21:29:46.866Z,65.41
2017-10-13T21:32:14.618Z,66.37
2017-10-13T21:34:42.193Z,65.63
2017-10-13T21:37:09.748Z,66.28
2017-10-13T21:39:37.529Z,65.96
2017-10-13T21:42:05.092Z,65.63
2017-10-13T21:44:32.638Z,65.74
2017-10-13T21:47:00.498Z,65.64
2017-10-13T21:49:28.465Z,65.83
2017-10-13T21:51:56.025Z,66.22
2017-10-13T21:54:23.607Z,66.03
2017-10-13T21:56:51.134Z,66.02
2017-10-13T21:59:18.655Z,65.82
2017-10-13T22:01:46.342Z,66.39
2017-10-13T22:04:13.869Z,65.83
2017-10-13T22:06:41.399Z,66.47
2017-10-13T22:09:09.348Z,66.32
2017-10-13T22:11:36.871Z,67.93
2017-10-13T22:14:04.395Z,68.19
2017-10-13T22:16:32.129Z,67.83
2017-10-13T22:18:59.650Z,67.58
2017-10-13T22:21:27.176Z,67.66
2017-10-13T22:23:54.909Z,67.97
2017-10-13T22:26:22.466Z,67.64
2017-10-13T22:28:50.032Z,67.56
2017-10-13T22:31:17.791Z,67.19
2017-10-13T22:33:45.311Z,67.03
2017-10-13T22:36:12.836Z,67.43
2017-10-13T22:38:40.408Z,68.32
2017-10-13T22:41:07.938Z,68.44
2017-10-13T22:43:35.463Z,68.80
2017-10-13T22:46:03.228Z,68.55
2017-10-13T22:48:30.748Z,69.00
2017-10-13T22:50:58.271Z,67.86
2017-10-13T22:53:26.216Z,66.76
2017-10-13T22:55:53.745Z,66.42
2017-10-13T22:58:21.272Z,66.87
2017-10-13T23:00:48.936Z,67.19
2017-10-13T23:03:16.467Z,67.37
2017-10-13T23:05:44.038Z,67.05
2017-10-13T23:08:11.582Z,67.11
2017-10-13T23:10:39.146Z,67.95
2017-10-13T23:13:06.752Z,67.84
2017-10-13T23:15:34.569Z,68.34
2017-10-13T23:18:02.130Z,68.39
2017-10-13T23:20:29.686Z,68.36
2017-10-13T23:22:57.267Z,68.52
2017-10-13T23:25:24.783Z,68.43
2017-10-13T23:27:52.368Z,67.65
2017-10-13T23:30:21.603Z,67.29
2017-10-13T23:32:49.156Z,67.20
2017-10-13T23:35:17.195Z,67.97
2017-10-13T23:37:44.742Z,68.23
2017-10-13T23:40:12.263Z,68.61
2017-10-13T23:42:39.793Z,68.80
2017-10-13T23:45:08.968Z,67.92
2017-10-13T23:47:36.525Z,67.54
2017-10-13T23:50:04.064Z,68.84
2017-10-13T23:52:39.398Z,67.80
2017-10-13T23:55:06.964Z,67.31
2017-10-13T23:57:34.648Z,67.88
